Time;durP1;ratioP1;P1;durP2;ratioP2;P2;SDS_P1;SDS_P2;PMS_P1;PMS_P2;Temp;Humidity;BMP_temperature;BMP_pressure;BME280_temperature;BME280_humidity;BME280_pressure;Samples;Min_cycle;Max_cycle;Signal;HPM_P1;HPM_P2
2023/06/11 00:00:54;;;;;;;8.43;6.97;;;;;;;17.60;100.00;98281.91;4469700;32;20081;-66
2023/06/11 00:03:21;;;;;;;8.25;6.72;;;;;;;17.61;100.00;98280.91;4469609;32;20137;-67
2023/06/11 00:05:49;;;;;;;10.20;6.93;;;;;;;17.64;100.00;98287.63;4469421;32;20171;-67
2023/06/11 00:08:16;;;;;;;8.57;6.55;;;;;;;17.61;100.00;98285.34;4469567;32;20088;-67
2023/06/11 00:10:44;;;;;;;9.00;6.65;;;;;;;17.63;100.00;98280.69;4469494;32;20089;-67
2023/06/11 00:13:11;;;;;;;9.23;7.30;;;;;;;17.68;100.00;98284.41;4469301;32;20169;-67
2023/06/11 00:15:38;;;;;;;11.05;7.37;;;;;;;17.62;100.00;98284.34;4469580;32;20088;-67
2023/06/11 00:18:05;;;;;;;11.60;7.10;;;;;;;17.55;100.00;98287.78;4469778;32;20537;-67
2023/06/11 00:20:32;;;;;;;10.30;7.20;;;;;;;17.55;100.00;98286.97;4469477;32;20177;-67
2023/06/11 00:23:00;;;;;;;9.75;6.87;;;;;;;17.58;100.00;98291.88;4469295;32;20469;-67
2023/06/11 00:25:27;;;;;;;11.57;7.57;;;;;;;17.60;100.00;98284.53;4469342;32;20418;-67
2023/06/11 00:27:54;;;;;;;13.60;7.78;;;;;;;17.61;100.00;98291.50;4469404;32;20084;-67
2023/06/11 00:30:22;;;;;;;8.85;7.35;;;;;;;17.61;100.00;98288.00;4469397;32;20081;-67
2023/06/11 00:32:49;;;;;;;9.95;7.68;;;;;;;17.59;100.00;98287.38;4469288;32;20113;-67
2023/06/11 00:35:17;;;;;;;12.63;8.18;;;;;;;17.59;100.00;98292.69;4469279;32;20132;-67
2023/06/11 00:37:44;;;;;;;10.82;7.90;;;;;;;17.60;100.00;98289.03;4469202;32;20512;-67
2023/06/11 00:40:13;;;;;;;12.13;8.35;;;;;;;17.59;100.00;98287.38;4469339;32;20101;-67
2023/06/11 00:42:40;;;;;;;11.95;8.93;;;;;;;17.64;100.00;98293.75;4469142;32;20081;-67
2023/06/11 00:45:08;;;;;;;12.13;8.18;;;;;;;17.64;100.00;98287.63;4469146;32;20158;-67
2023/06/11 00:47:39;;;;;;;12.00;8.70;;;;;;;17.62;100.00;98295.75;4469419;32;20088;-67
2023/06/11 00:50:08;;;;;;;12.13;8.07;;;;;;;17.60;100.00;98297.78;4455140;32;20111;-67
2023/06/11 00:52:35;;;;;;;15.27;8.70;;;;;;;17.56;100.00;98296.53;4469408;32;20089;-67
2023/06/11 00:55:03;;;;;;;12.15;8.65;;;;;;;17.54;100.00;98290.62;4469044;32;20147;-67
2023/06/11 00:57:31;;;;;;;12.65;8.50;;;;;;;17.58;100.00;98299.00;4468873;32;20088;-67
2023/06/11 01:00:00;;;;;;;14.50;8.50;;;;;;;17.55;100.00;98287.78;4468948;32;20119;-67
2023/06/11 01:02:39;;;;;;;14.68;8.93;;;;;;;17.58;100.00;98291.03;4469017;32;20124;-67
2023/06/11 01:05:09;;;;;;;12.23;8.13;;;;;;;17.55;100.00;98289.62;4454757;32;20179;-67
2023/06/11 01:07:41;;;;;;;12.40;8.77;;;;;;;17.50;100.00;98295.50;4468829;32;20100;-67
2023/06/11 01:10:10;;;;;;;13.62;9.00;;;;;;;17.49;100.00;98290.41;4469130;32;20107;-67
2023/06/11 01:12:38;;;;;;;10.90;8.30;;;;;;;17.50;100.00;98289.38;4468982;32;20112;-67
2023/06/11 01:15:12;;;;;;;12.02;8.70;;;;;;;17.50;100.00;98287.56;4468592;32;20765;-67
2023/06/11 01:17:46;;;;;;;9.85;8.27;;;;;;;17.51;100.00;98285.72;4468787;32;20130;-67
2023/06/11 01:20:37;;;;;;;11.50;8.80;;;;;;;17.50;100.00;98278.78;4454939;32;20152;-67
2023/06/11 01:23:31;;;;;;;9.85;8.32;;;;;;;17.52;100.00;98287.34;4456694;32;20105;-67
2023/06/11 01:26:16;;;;;;;12.87;8.00;;;;;;;17.51;100.00;98286.53;4460556;32;20100;-67
2023/06/11 01:28:46;;;;;;;12.98;8.48;;;;;;;17.46;100.00;98288.94;4474060;32;20427;-67
2023/06/11 01:31:15;;;;;;;13.15;8.32;;;;;;;17.46;100.00;98282.84;4473779;32;20500;-67
2023/06/11 01:33:43;;;;;;;11.30;7.93;;;;;;;17.46;100.00;98283.66;4473838;32;20127;-67
2023/06/11 01:36:11;;;;;;;10.45;7.85;;;;;;;17.43;100.00;98284.03;4473929;32;20092;-67
2023/06/11 01:38:51;;;;;;;12.32;9.00;;;;;;;17.48;100.00;98289.56;4473815;32;20644;-67
2023/06/11 01:41:20;;;;;;;10.80;7.75;;;;;;;17.49;100.00;98279.81;4473968;32;20115;-67
2023/06/11 01:43:47;;;;;;;11.00;7.65;;;;;;;17.47;100.00;98290.59;4473942;32;20092;-67
2023/06/11 01:46:14;;;;;;;9.40;7.68;;;;;;;17.47;100.00;98289.75;4473823;32;20100;-67
2023/06/11 01:48:42;;;;;;;10.70;7.65;;;;;;;17.46;100.00;98288.13;4473709;32;20174;-67
2023/06/11 01:51:13;;;;;;;12.10;8.30;;;;;;;17.45;100.00;98292.59;4473459;32;20115;-67
2023/06/11 01:53:42;;;;;;;10.52;8.13;;;;;;;17.46;100.00;98296.09;4473670;32;20123;-67
2023/06/11 01:56:10;;;;;;;10.07;7.35;;;;;;;17.42;100.00;98298.28;4473437;32;20084;-67
2023/06/11 01:58:37;;;;;;;8.38;7.25;;;;;;;17.41;100.00;98293.16;4473593;32;20591;-67
2023/06/11 02:01:04;;;;;;;10.73;7.40;;;;;;;17.44;100.00;98292.78;4471073;32;80671;-67
2023/06/11 02:03:32;;;;;;;8.73;7.10;;;;;;;17.42;100.00;98292.97;4473479;32;20116;-67
2023/06/11 02:05:59;;;;;;;10.80;7.25;;;;;;;17.44;100.00;98296.28;4473204;32;20093;-67
2023/06/11 02:08:26;;;;;;;7.97;6.47;;;;;;;17.47;100.00;98297.69;4473346;32;20521;-67
2023/06/11 02:10:55;;;;;;;9.18;7.03;;;;;;;17.52;100.00;98298.75;4459046;32;20158;-67
2023/06/11 02:13:22;;;;;;;8.05;6.68;;;;;;;17.54;100.00;98294.06;4473165;32;20519;-67
2023/06/11 02:15:49;;;;;;;10.63;7.18;;;;;;;17.54;100.00;98286.13;4473071;32;20104;-67
2023/06/11 02:18:16;;;;;;;9.98;7.30;;;;;;;17.51;100.00;98301.59;4473348;32;20149;-67
2023/06/11 02:20:44;;;;;;;9.90;7.25;;;;;;;17.50;100.00;98300.78;4473290;32;20093;-67
2023/06/11 02:23:11;;;;;;;9.80;7.65;;;;;;;17.47;100.00;98305.62;4473212;32;20157;-67
2023/06/11 02:25:38;;;;;;;12.57;7.22;;;;;;;17.41;100.00;98303.75;4472988;32;20100;-67
2023/06/11 02:28:06;;;;;;;8.82;6.35;;;;;;;17.34;100.00;98299.25;4473202;32;20104;-67
2023/06/11 02:30:33;;;;;;;10.02;6.85;;;;;;;17.29;100.00;98293.72;4473122;32;20084;-67
2023/06/11 02:33:01;;;;;;;11.00;6.75;;;;;;;17.34;100.00;98298.44;4472842;32;20162;-67
2023/06/11 02:35:29;;;;;;;9.57;6.57;;;;;;;17.30;100.00;98295.34;4469839;32;20088;-67
2023/06/11 02:37:56;;;;;;;9.55;6.65;;;;;;;17.28;100.00;98291.25;4470002;32;20160;-67
2023/06/11 02:40:23;;;;;;;13.05;6.43;;;;;;;17.30;100.00;98299.81;4469889;32;20119;-67
2023/06/11 02:42:51;;;;;;;7.12;6.10;;;;;;;17.30;100.00;98294.53;4470170;32;20089;-67
2023/06/11 02:45:18;;;;;;;8.52;6.55;;;;;;;17.30;100.00;98297.97;4469902;32;20096;-67
2023/06/11 02:47:45;;;;;;;10.57;6.05;;;;;;;17.30;100.00;98292.69;4469893;32;20104;-66
2023/06/11 02:50:13;;;;;;;10.48;6.12;;;;;;;17.31;100.00;98296.16;4470003;32;20126;-67
2023/06/11 02:52:40;;;;;;;7.47;6.00;;;;;;;17.32;100.00;98292.50;4469638;32;20097;-67
2023/06/11 02:55:08;;;;;;;9.40;6.07;;;;;;;17.30;100.00;98286.59;4470127;32;20495;-67
2023/06/11 02:57:36;;;;;;;8.65;6.18;;;;;;;17.28;100.00;98297.38;4469911;32;20101;-67
2023/06/11 03:00:05;;;;;;;7.93;6.05;;;;;;;17.28;100.00;98296.56;4469930;32;20492;-67
2023/06/11 03:02:32;;;;;;;8.00;5.82;;;;;;;17.30;100.00;98286.59;4469518;32;20119;-67
2023/06/11 03:05:00;;;;;;;9.10;5.53;;;;;;;17.30;100.00;98297.16;4469986;32;20176;-67
2023/06/11 03:07:27;;;;;;;10.38;6.30;;;;;;;17.30;100.00;98299.81;4469703;32;20158;-67
2023/06/11 03:09:54;;;;;;;8.90;5.65;;;;;;;17.27;100.00;98302.84;4469992;32;20136;-67
2023/06/11 03:12:22;;;;;;;10.73;6.03;;;;;;;17.28;100.00;98299.19;4469582;32;20507;-67
2023/06/11 03:14:49;;;;;;;7.87;5.05;;;;;;;17.28;100.00;98301.84;4470145;32;20100;-67
2023/06/11 03:17:17;;;;;;;10.93;6.18;;;;;;;17.26;100.00;98304.69;4469919;32;20484;-67
2023/06/11 03:19:45;;;;;;;7.78;5.55;;;;;;;17.32;100.00;98297.78;4469633;32;20184;-67
2023/06/11 03:22:12;;;;;;;9.88;5.80;;;;;;;17.30;100.00;98305.12;4469915;32;20128;-67
2023/06/11 03:24:39;;;;;;;7.10;5.80;;;;;;;17.33;100.00;98302.09;4469532;32;20469;-67
2023/06/11 03:27:08;;;;;;;10.02;5.47;;;;;;;17.31;100.00;98293.53;4469941;32;20462;-67
2023/06/11 03:29:36;;;;;;;7.97;5.15;;;;;;;17.33;100.00;98302.09;4469890;32;20513;-67
2023/06/11 03:32:03;;;;;;;7.90;5.55;;;;;;;17.35;100.00;98305.34;4469578;32;20085;-67
2023/06/11 03:34:30;;;;;;;8.02;5.65;;;;;;;17.36;100.00;98315.75;4455563;32;20112;-67
2023/06/11 03:36:58;;;;;;;8.95;5.65;;;;;;;17.37;100.00;98314.75;4469802;32;20126;-67
2023/06/11 03:39:25;;;;;;;8.68;5.10;;;;;;;17.40;100.00;98313.56;4469762;32;20097;-67
2023/06/11 03:41:53;;;;;;;6.30;5.22;;;;;;;17.45;100.00;98316.44;4469680;32;20120;-66
2023/06/11 03:44:21;;;;;;;10.13;5.53;;;;;;;17.40;100.00;98321.50;4469752;32;20100;-67
2023/06/11 03:46:50;;;;;;;9.88;5.65;;;;;;;17.45;100.00;98324.37;4469421;32;20530;-67
2023/06/11 03:49:17;;;;;;;7.05;5.15;;;;;;;17.43;100.00;98326.41;4469513;32;20490;-67
2023/06/11 03:51:44;;;;;;;6.57;5.25;;;;;;;17.40;100.00;98325.97;4455653;32;20127;-67
2023/06/11 03:54:12;;;;;;;7.65;5.28;;;;;;;17.37;100.00;98332.47;4469729;32;20451;-67
2023/06/11 03:56:41;;;;;;;6.32;5.37;;;;;;;17.29;100.00;98329.94;4469727;32;20075;-67
2023/06/11 03:59:09;;;;;;;7.43;5.60;;;;;;;17.28;100.00;98328.31;4469636;32;20100;-67
2023/06/11 04:01:36;;;;;;;10.55;5.95;;;;;;;17.31;100.00;98322.66;4469360;32;20116;-67
2023/06/11 04:04:04;;;;;;;8.57;5.93;;;;;;;17.29;100.00;98329.94;4469856;32;20092;-67
2023/06/11 04:06:38;;;;;;;7.45;5.60;;;;;;;17.36;100.00;98330.81;4469535;32;20091;-67
2023/06/11 04:09:06;;;;;;;10.27;5.62;;;;;;;17.34;100.00;98333.66;4469863;32;20116;-67
2023/06/11 04:11:34;;;;;;;6.10;5.10;;;;;;;17.34;100.00;98330.19;4469713;32;20100;-67
2023/06/11 04:14:01;;;;;;;8.98;5.43;;;;;;;17.36;100.00;98336.12;4469556;32;20096;-67
2023/06/11 04:16:29;;;;;;;6.10;5.15;;;;;;;17.31;100.00;98334.03;4469668;32;20554;-67
2023/06/11 04:18:57;;;;;;;8.35;5.47;;;;;;;17.35;100.00;98340.59;4469577;32;20487;-67
2023/06/11 04:21:25;;;;;;;8.50;5.65;;;;;;;17.33;100.00;98336.50;4469618;32;20105;-67
2023/06/11 04:23:52;;;;;;;9.68;5.72;;;;;;;17.33;100.00;98344.44;4469151;32;20808;-67
2023/06/11 04:26:20;;;;;;;9.40;5.60;;;;;;;17.32;100.00;98335.69;4469192;32;20119;-67
2023/06/11 04:28:48;;;;;;;6.20;5.05;;;;;;;17.44;100.00;98343.94;4469216;32;20134;-67
2023/06/11 04:31:16;;;;;;;6.43;5.35;;;;;;;17.46;100.00;98344.56;4469427;32;20097;-67
2023/06/11 04:33:45;;;;;;;6.05;4.90;;;;;;;17.48;100.00;98339.06;4469142;32;20096;-67
2023/06/11 04:36:13;;;;;;;6.68;4.70;;;;;;;17.50;100.00;98348.47;4469256;32;20131;-67
2023/06/11 04:38:44;;;;;;;6.03;4.90;;;;;;;17.49;100.00;98346.00;4469021;32;20572;-67
2023/06/11 04:41:13;;;;;;;8.50;4.97;;;;;;;17.53;100.00;98352.53;4469468;32;20089;-67
2023/06/11 04:43:41;;;;;;;6.15;5.47;;;;;;;17.52;100.00;98354.37;4469146;32;20144;-67
2023/06/11 04:46:09;;;;;;;6.32;5.62;;;;;;;17.52;100.00;98356.22;4469426;32;20088;-66
2023/06/11 04:48:37;;;;;;;8.05;5.70;;;;;;;17.47;100.00;98348.84;4469065;32;20105;-67
2023/06/11 04:51:06;;;;;;;6.85;5.00;;;;;;;17.42;100.00;98348.59;4469014;32;20088;-67
2023/06/11 04:53:37;;;;;;;6.60;5.15;;;;;;;17.42;100.00;98340.66;4469321;32;20588;-67
2023/06/11 04:56:04;;;;;;;9.90;5.15;;;;;;;17.46;100.00;98341.91;4469312;32;20092;-66
2023/06/11 04:58:32;;;;;;;9.52;4.85;;;;;;;17.62;100.00;98343.44;4468207;32;20159;-67
2023/06/11 05:01:00;;;;;;;6.75;4.70;;;;;;;17.64;100.00;98341.44;4469109;32;20089;-67
2023/06/11 05:03:29;;;;;;;8.80;4.85;;;;;;;17.68;100.00;98333.91;4468739;32;20118;-67
2023/06/11 05:05:57;;;;;;;9.10;5.10;;;;;;;17.67;100.00;98348.19;4468839;32;20080;-67
2023/06/11 05:08:28;;;;;;;5.90;5.30;;;;;;;17.71;100.00;98342.31;4468945;32;20426;-67
2023/06/11 05:10:57;;;;;;;8.88;5.70;;;;;;;17.80;100.00;98350.09;4469055;32;20108;-67
2023/06/11 05:13:26;;;;;;;7.87;4.78;;;;;;;17.93;100.00;98349.41;4468660;32;20524;-67
2023/06/11 05:15:58;;;;;;;6.12;5.20;;;;;;;18.06;100.00;98358.25;4469044;32;20118;-67
2023/06/11 05:18:26;;;;;;;7.32;4.28;;;;;;;18.24;100.00;98356.88;4468837;32;20088;-67
2023/06/11 05:20:54;;;;;;;7.05;4.90;;;;;;;18.44;100.00;98352.50;4468929;32;20108;-67
2023/06/11 05:23:28;;;;;;;8.88;4.78;;;;;;;18.58;100.00;98350.72;4468688;32;20096;-67
2023/06/11 05:26:01;;;;;;;7.95;4.70;;;;;;;18.74;100.00;98349.53;4469125;32;20474;-67
2023/06/11 05:28:30;;;;;;;;;;;;;;;19.22;100.00;98345.16;4469014;32;20084;-67
2023/06/11 05:30:59;;;;;;;5.40;4.55;;;;;;;19.43;100.00;98349.44;4468596;32;20344;-67
2023/06/11 05:33:26;;;;;;;5.75;4.00;;;;;;;19.24;100.00;98351.91;4468531;32;20088;-67
2023/06/11 05:35:54;;;;;;;6.72;4.25;;;;;;;19.33;100.00;98348.03;4468828;32;20567;-67
2023/06/11 05:38:21;;;;;;;5.95;4.85;;;;;;;19.37;100.00;98350.28;4468630;32;20217;-67
2023/06/11 05:40:49;;;;;;;6.30;5.10;;;;;;;19.22;100.00;98356.59;4468560;32;20443;-67
2023/06/11 05:43:16;;;;;;;5.55;4.37;;;;;;;19.18;100.00;98354.53;4468378;32;20107;-67
2023/06/11 05:45:49;;;;;;;4.85;4.07;;;;;;;19.14;100.00;98364.75;4468605;32;20089;-67
2023/06/11 05:48:17;;;;;;;5.60;4.00;;;;;;;19.38;100.00;98366.00;4468305;32;20080;-67
2023/06/11 05:50:45;;;;;;;6.45;4.97;;;;;;;19.35;100.00;98360.25;4468439;32;20601;-67
2023/06/11 05:53:12;;;;;;;6.72;4.25;;;;;;;19.50;100.00;98366.22;4468191;32;20088;-67
2023/06/11 05:55:40;;;;;;;6.72;4.30;;;;;;;19.43;100.00;98363.53;4468439;32;20164;-67
2023/06/11 05:58:08;;;;;;;4.55;3.90;;;;;;;19.63;100.00;98360.88;4468537;32;20089;-67
2023/06/11 06:00:35;;;;;;;4.90;4.30;;;;;;;19.91;100.00;98367.84;4468232;32;20097;-67
2023/06/11 06:03:04;;;;;;;5.28;4.20;;;;;;;19.99;100.00;98367.59;4468371;32;20104;-67
2023/06/11 06:05:32;;;;;;;7.32;4.70;;;;;;;20.02;100.00;98371.69;4468047;32;20089;-67
2023/06/11 06:07:59;;;;;;;5.40;4.05;;;;;;;20.12;100.00;98369.44;4468108;32;20111;-67
2023/06/11 06:10:27;;;;;;;4.70;4.18;;;;;;;19.96;100.00;98372.53;4469632;32;20123;-67
2023/06/11 06:12:54;;;;;;;8.93;4.30;;;;;;;20.06;100.00;98369.44;4470516;32;20130;-67
2023/06/11 06:15:21;;;;;;;6.87;4.60;;;;;;;20.05;100.00;98386.44;4470103;32;20088;-67
2023/06/11 06:17:49;;;;;;;8.32;4.72;;;;;;;20.17;100.00;98379.44;4470462;32;20113;-67
2023/06/11 06:20:16;;;;;;;7.50;4.65;;;;;;;20.23;100.00;98377.75;4470233;32;20100;-67
2023/06/11 06:22:44;;;;;;;5.45;4.00;;;;;;;20.28;100.00;98380.63;4470114;32;20588;-67
2023/06/11 06:25:15;;;;;;;5.70;4.37;;;;;;;20.09;100.00;98377.81;4470314;32;20122;-67
2023/06/11 06:27:43;;;;;;;4.68;4.18;;;;;;;20.13;100.00;98380.88;4470366;32;20590;-67
2023/06/11 06:30:12;;;;;;;5.18;4.15;;;;;;;20.19;100.00;98374.72;4470262;32;20104;-67
2023/06/11 06:32:40;;;;;;;5.57;4.15;;;;;;;20.35;100.00;98381.44;4469956;32;20100;-67
2023/06/11 06:35:08;;;;;;;8.68;4.35;;;;;;;20.66;100.00;98385.22;4470061;32;20451;-67
2023/06/11 06:37:36;;;;;;;7.03;4.60;;;;;;;20.29;100.00;98377.75;4470321;32;20119;-67
2023/06/11 06:40:04;;;;;;;8.27;4.50;;;;;;;20.32;100.00;98392.50;4469881;32;20089;-67
2023/06/11 06:42:32;;;;;;;5.93;4.32;;;;;;;20.29;100.00;98388.41;4470024;32;20470;-67
2023/06/11 06:45:00;;;;;;;5.43;4.10;;;;;;;20.35;100.00;98392.87;4470235;32;20462;-67
2023/06/11 06:47:27;;;;;;;9.55;3.90;;;;;;;20.16;100.00;98399.06;4470235;32;20119;-67
2023/06/11 06:49:55;;;;;;;7.72;4.20;;;;;;;20.39;100.00;98394.09;4470243;32;20118;-67
2023/06/11 06:52:23;;;;;;;9.27;3.83;;;;;;;20.46;100.00;98393.25;4469696;32;20088;-67
2023/06/11 06:54:51;;;;;;;4.68;3.92;;;;;;;20.41;100.00;98395.72;4470087;32;20108;-67
2023/06/11 06:57:18;;;;;;;5.82;4.20;;;;;;;20.56;100.00;98396.31;4470189;32;20092;-67
2023/06/11 06:59:46;;;;;;;6.00;4.20;;;;;;;20.63;100.00;98396.25;4469867;32;20115;-67
2023/06/11 07:02:14;;;;;;;7.47;4.45;;;;;;;20.80;100.00;98404.59;4469977;32;20152;-67
2023/06/11 07:04:42;;;;;;;7.22;4.20;;;;;;;20.82;100.00;98402.56;4455851;32;20100;-67
2023/06/11 07:07:10;;;;;;;5.22;4.32;;;;;;;20.91;100.00;98395.97;4469941;32;20093;-67
2023/06/11 07:09:37;;;;;;;4.65;4.20;;;;;;;20.90;100.00;98396.97;4469657;32;20524;-67
2023/06/11 07:12:04;;;;;;;5.50;4.32;;;;;;;21.13;100.00;98401.75;4469957;32;20438;-67
2023/06/11 07:14:32;;;;;;;5.65;4.22;;;;;;;21.33;100.00;98401.63;4454090;32;20165;-67
2023/06/11 07:16:59;;;;;;;9.15;4.97;;;;;;;21.42;100.00;98402.19;4454415;32;20129;-67
2023/06/11 07:19:27;;;;;;;8.27;4.70;;;;;;;21.14;100.00;98400.75;4454325;32;20096;-67
2023/06/11 07:21:54;;;;;;;6.32;4.37;;;;;;;21.02;100.00;98397.94;4453649;32;20092;-67
2023/06/11 07:24:23;;;;;;;5.70;4.30;;;;;;;21.14;100.00;98402.59;4454218;32;20100;-67
2023/06/11 07:26:50;;;;;;;6.32;4.10;;;;;;;21.13;100.00;98395.63;4454344;32;20124;-67
2023/06/11 07:29:18;;;;;;;6.47;4.20;;;;;;;21.11;100.00;98395.03;4454262;32;20082;-67
2023/06/11 07:31:45;;;;;;;5.18;4.35;;;;;;;21.55;100.00;98391.44;4454302;32;20198;-67
2023/06/11 07:34:15;;;;;;;5.55;3.75;;;;;;;22.11;100.00;98400.37;4454403;32;20101;-67
2023/06/11 07:36:42;;;;;;;6.68;3.58;;;;;;;22.32;99.75;98396.50;4454103;32;20094;-67
2023/06/11 07:39:10;;;;;;;5.55;3.90;;;;;;;22.53;99.61;98401.59;4454145;32;20481;-67
2023/06/11 07:41:37;;;;;;;5.25;4.55;;;;;;;22.37;98.08;98398.50;4453983;32;20493;-67
2023/06/11 07:44:05;;;;;;;6.93;3.80;;;;;;;22.19;100.00;98396.59;4454156;32;20085;-67
2023/06/11 07:46:33;;;;;;;6.12;4.12;;;;;;;22.36;99.32;98412.88;4454090;32;20089;-67
2023/06/11 07:49:00;;;;;;;4.55;3.62;;;;;;;22.09;98.46;98414.97;4453908;32;20101;-67
2023/06/11 07:51:28;;;;;;;5.25;4.28;;;;;;;22.17;98.76;98414.69;4454036;32;20168;-67
2023/06/11 07:53:56;;;;;;;5.75;3.67;;;;;;;21.91;99.74;98410.44;4454249;32;20085;-67
2023/06/11 07:56:23;;;;;;;4.75;3.60;;;;;;;22.04;99.25;98410.28;4454092;32;20569;-67
2023/06/11 07:58:51;;;;;;;7.10;3.90;;;;;;;22.09;98.62;98418.47;4453933;32;20109;-67
2023/06/11 08:01:18;;;;;;;6.35;4.03;;;;;;;22.33;97.29;98418.66;4453795;32;20096;-67
2023/06/11 08:03:46;;;;;;;5.80;4.28;;;;;;;22.60;99.07;98421.03;4453838;32;20126;-67
2023/06/11 08:06:13;;;;;;;4.25;3.30;;;;;;;22.99;94.29;98424.22;4453546;32;20561;-67
2023/06/11 08:08:40;;;;;;;6.50;4.20;;;;;;;22.95;94.18;98423.03;4453785;32;20096;-67
2023/06/11 08:11:08;;;;;;;6.25;3.75;;;;;;;23.01;94.03;98430.16;4453992;32;20134;-67
2023/06/11 08:13:35;;;;;;;5.32;4.07;;;;;;;22.94;94.05;98430.25;4463280;32;20092;-67
2023/06/11 08:16:03;;;;;;;4.72;3.87;;;;;;;22.91;92.41;98430.72;4469282;32;20097;-67
2023/06/11 08:18:31;;;;;;;6.43;3.90;;;;;;;22.75;94.53;98437.47;4469375;32;20750;-67
2023/06/11 08:20:58;;;;;;;12.18;4.22;;;;;;;23.35;92.32;98430.53;4454948;32;20105;-67
2023/06/11 08:23:26;;;;;;;7.57;4.55;;;;;;;23.78;90.62;98429.44;4469247;32;20088;-67
2023/06/11 08:25:58;;;;;;;7.25;3.95;;;;;;;24.29;86.97;98429.03;4469124;32;20111;-67
2023/06/11 08:28:27;;;;;;;8.02;3.85;;;;;;;24.40;88.21;98436.22;4469430;32;20423;-67
2023/06/11 08:30:56;;;;;;;4.65;3.85;;;;;;;24.01;86.13;98436.72;4469542;32;20462;-67
2023/06/11 08:33:23;;;;;;;5.97;3.83;;;;;;;24.22;84.78;98439.84;4467752;32;20101;-67
2023/06/11 08:35:50;;;;;;;4.35;3.65;;;;;;;24.86;84.27;98429.16;4469111;32;20085;-67
2023/06/11 08:38:18;;;;;;;5.85;4.10;;;;;;;24.82;81.18;98438.72;4469194;32;20130;-67
2023/06/11 08:40:45;;;;;;;4.95;3.90;;;;;;;24.55;84.57;98438.41;4469203;32;20462;-67
2023/06/11 08:43:12;;;;;;;5.87;4.00;;;;;;;24.26;84.23;98436.47;4469091;32;20434;-67
2023/06/11 08:45:39;;;;;;;7.25;3.70;;;;;;;24.97;86.42;98441.69;4469090;32;20594;-67
2023/06/11 08:48:08;;;;;;;5.93;3.67;;;;;;;25.55;83.26;98433.59;4469277;32;20104;-67
2023/06/11 08:50:35;;;;;;;4.10;3.70;;;;;;;25.31;80.69;98440.97;4469231;32;20161;-67
2023/06/11 08:53:04;;;;;;;6.28;3.85;;;;;;;25.06;82.25;98433.28;4454993;32;20119;-67
2023/06/11 08:55:32;;;;;;;4.10;3.70;;;;;;;25.57;79.86;98441.41;4468952;32;20671;-67
2023/06/11 08:58:00;;;;;;;7.40;5.00;;;;;;;25.33;80.18;98444.25;4468798;32;20092;-67
2023/06/11 09:00:27;;;;;;;7.72;3.70;;;;;;;24.54;84.26;98447.47;4469197;32;20478;-67
2023/06/11 09:02:54;;;;;;;5.03;3.97;;;;;;;24.33;84.68;98433.66;4468766;32;20148;-67
2023/06/11 09:05:22;;;;;;;4.07;3.78;;;;;;;24.70;83.23;98436.06;4468854;32;20076;-67
2023/06/11 09:07:51;;;;;;;6.20;3.87;;;;;;;25.09;83.92;98428.22;4454894;32;20567;-67
2023/06/11 09:10:19;;;;;;;5.87;3.83;;;;;;;25.35;83.25;98436.75;4468926;32;20139;-67
2023/06/11 09:12:46;;;;;;;4.50;3.90;;;;;;;24.78;80.26;98430.34;4464278;32;20105;-67
2023/06/11 09:15:14;;;;;;;6.03;4.85;;;;;;;24.49;82.06;98434.00;4453251;32;20097;-67
2023/06/11 09:17:42;;;;;;;6.72;4.20;;;;;;;24.72;82.35;98431.25;4453045;32;20097;-67
2023/06/11 09:20:11;;;;;;;7.00;4.20;;;;;;;24.76;81.80;98432.44;4453363;32;20500;-67
2023/06/11 09:22:41;;;;;;;7.40;4.25;;;;;;;24.68;83.52;98432.81;4453098;32;20509;-67
2023/06/11 09:25:10;;;;;;;4.95;3.83;;;;;;;25.09;81.99;98438.16;4453242;32;20099;-67
2023/06/11 09:27:39;;;;;;;5.30;4.05;;;;;;;25.28;80.31;98442.22;4453136;32;20540;-67
2023/06/11 09:30:17;;;;;;;5.37;3.97;;;;;;;24.87;80.54;98440.66;4453378;32;20114;-67
2023/06/11 09:32:47;;;;;;;5.25;3.83;;;;;;;24.78;79.45;98445.59;4451230;32;20142;-67
2023/06/11 09:35:15;;;;;;;4.72;3.60;;;;;;;24.43;79.73;98441.09;4468336;32;20132;-67
2023/06/11 09:37:50;;;;;;;4.78;3.83;;;;;;;24.70;81.66;98446.78;4468556;32;20116;-67
2023/06/11 09:40:19;;;;;;;4.10;3.70;;;;;;;24.37;83.36;98442.84;4468714;32;20160;-67
2023/06/11 09:42:48;;;;;;;5.35;4.00;;;;;;;24.52;79.93;98439.69;4468559;32;20152;-67
2023/06/11 09:45:19;;;;;;;5.22;3.80;;;;;;;24.95;79.46;98435.75;4469739;32;20112;-67
2023/06/11 09:47:47;;;;;;;4.90;3.90;;;;;;;25.62;76.64;98444.19;4470389;32;20171;-67
2023/06/11 09:50:16;;;;;;;5.75;4.03;;;;;;;24.87;76.02;98443.34;4470456;32;20080;-67
2023/06/11 09:52:45;;;;;;;5.53;3.92;;;;;;;24.46;80.09;98445.97;4470219;32;20158;-67
2023/06/11 09:55:13;;;;;;;4.62;3.85;;;;;;;24.74;80.70;98434.53;4470294;32;20131;-67
2023/06/11 09:57:42;;;;;;;4.03;3.62;;;;;;;25.14;78.26;98431.00;4470190;32;20085;-67
2023/06/11 10:00:11;;;;;;;7.15;4.15;;;;;;;25.36;74.77;98442.94;4470317;32;20152;-68
2023/06/11 10:02:41;;;;;;;7.22;4.15;;;;;;;25.61;79.73;98438.00;4470504;32;20446;-67
2023/06/11 10:05:10;;;;;;;5.22;4.20;;;;;;;26.26;72.15;98433.09;4470249;32;20089;-67
2023/06/11 10:07:49;;;;;;;4.87;3.60;;;;;;;26.48;66.89;98437.66;4470557;32;20463;-67
2023/06/11 10:10:20;;;;;;;5.53;3.75;;;;;;;25.85;67.64;98440.53;4456606;32;20126;-67
2023/06/11 10:12:52;;;;;;;5.00;4.03;;;;;;;25.83;72.77;98438.09;4452736;32;20089;-68
2023/06/11 10:15:23;;;;;;;4.95;3.62;;;;;;;25.54;70.95;98433.84;4470300;32;20093;-67
2023/06/11 10:17:53;;;;;;;4.68;3.80;;;;;;;25.74;71.59;98428.81;4470289;32;20107;-67
2023/06/11 10:20:26;;;;;;;4.15;3.72;;;;;;;25.57;72.36;98423.47;4470097;32;20080;-67
2023/06/11 10:23:09;;;;;;;5.20;3.87;;;;;;;24.79;74.36;98433.81;4455837;32;20100;-67
2023/06/11 10:25:38;;;;;;;5.28;3.90;;;;;;;25.13;76.46;98440.09;4470196;32;20465;-67
2023/06/11 10:28:07;;;;;;;7.57;4.07;;;;;;;25.45;73.62;98434.25;4470088;32;20529;-67
2023/06/11 10:30:34;;;;;;;4.30;3.80;;;;;;;24.83;74.88;98436.84;4470219;32;20150;-67
2023/06/11 10:33:01;;;;;;;15.90;4.50;;;;;;;24.94;74.20;98426.06;4470149;32;20179;-67
2023/06/11 10:35:35;;;;;;;4.00;3.60;;;;;;;24.99;74.24;98436.06;4470292;32;20116;-67
2023/06/11 10:38:06;;;;;;;;;;;;;;;24.93;74.24;98431.69;4470299;32;20131;-67
2023/06/11 10:40:35;;;;;;;4.55;3.70;;;;;;;24.79;73.63;98433.81;4470177;32;19985;-67
2023/06/11 10:43:12;;;;;;;4.90;3.97;;;;;;;24.61;74.60;98427.56;4470193;32;20116;-67
2023/06/11 10:45:40;;;;;;;4.65;3.62;;;;;;;25.13;74.02;98428.56;4470091;32;20072;-67
2023/06/11 10:48:09;;;;;;;4.35;3.15;;;;;;;25.30;70.67;98420.59;4469875;32;20085;-67
2023/06/11 10:50:36;;;;;;;5.35;3.53;;;;;;;25.53;71.07;98421.47;4455677;32;20471;-67
2023/06/11 10:53:12;;;;;;;6.82;3.60;;;;;;;25.24;72.54;98425.03;4456331;32;20150;-67
2023/06/11 10:55:44;;;;;;;5.30;3.80;;;;;;;25.12;69.21;98426.94;4469235;32;20446;-67
2023/06/11 10:58:22;;;;;;;7.18;3.50;;;;;;;24.91;70.13;98436.47;4470059;32;20573;-67
2023/06/11 11:00:52;;;;;;;4.57;3.90;;;;;;;24.75;73.71;98427.31;4470401;32;20144;-67
2023/06/11 11:03:21;;;;;;;8.05;4.03;;;;;;;24.49;73.26;98420.59;4469853;32;20134;-67
2023/06/11 11:05:53;;;;;;;4.28;3.50;;;;;;;24.47;75.55;98431.56;4469734;32;20088;-67
2023/06/11 11:08:21;;;;;;;4.40;3.45;;;;;;;25.09;74.85;98424.75;4469883;32;20108;-67
2023/06/11 11:10:56;;;;;;;5.65;3.40;;;;;;;25.27;68.29;98424.53;4469922;32;20085;-67
2023/06/11 11:13:24;;;;;;;5.80;3.67;;;;;;;25.64;68.04;98423.28;4466190;32;20125;-68
2023/06/11 11:15:51;;;;;;;3.62;3.33;;;;;;;25.37;69.44;98428.47;4469856;32;20103;-67
2023/06/11 11:18:19;;;;;;;5.20;3.45;;;;;;;25.63;69.92;98421.66;4469641;32;20176;-67
2023/06/11 11:20:46;;;;;;;4.78;3.80;;;;;;;25.45;72.37;98420.84;4470125;32;20168;-67
2023/06/11 11:23:14;;;;;;;5.22;3.83;;;;;;;25.33;70.56;98422.78;4469550;32;20096;-67
2023/06/11 11:25:42;;;;;;;3.78;3.42;;;;;;;25.06;71.68;98414.50;4469734;32;20111;-67
2023/06/11 11:28:12;;;;;;;5.28;3.37;;;;;;;25.28;72.77;98412.72;4469701;32;20185;-67
2023/06/11 11:30:40;;;;;;;5.18;3.30;;;;;;;25.30;71.40;98407.19;4469844;32;20077;-67
2023/06/11 11:33:07;;;;;;;4.32;3.20;;;;;;;25.25;75.32;98412.41;4469887;32;20088;-67